Time;durP1;ratioP1;P1;durP2;ratioP2;P2;SDS_P1;SDS_P2;PMS_P1;PMS_P2;Temp;Humidity;BMP_temperature;BMP_pressure;BME280_temperature;BME280_humidity;BME280_pressure;Samples;Min_cycle;Max_cycle;Signal;HPM_P1;HPM_P2
2023/10/28 00:02:23;;;;;;;7.13;2.40;;;;;;;;;;4968509;28;92678;-80
2023/10/28 00:04:51;;;;;;;9.02;2.28;;;;;;;;;;4969059;28;93148;-79
2023/10/28 00:07:17;;;;;;;7.22;2.20;;;;;;;;;;4970195;28;91683;-79
2023/10/28 00:09:44;;;;;;;6.20;2.65;;;;;;;;;;4969093;28;92654;-80
2023/10/28 00:12:12;;;;;;;6.95;2.10;;;;;;;;;;4961628;28;92977;-79
2023/10/28 00:14:39;;;;;;;6.85;2.17;;;;;;;;;;4967199;28;94785;-79
2023/10/28 00:17:05;;;;;;;6.28;2.22;;;;;;;;;;4968136;28;93798;-80
2023/10/28 00:19:32;;;;;;;6.57;2.40;;;;;;;;;;4968668;28;92432;-79
2023/10/28 00:21:58;;;;;;;6.85;2.50;;;;;;;;;;4968339;28;92907;-80
2023/10/28 00:24:25;;;;;;;6.90;2.50;;;;;;;;;;4966705;28;93337;-79
2023/10/28 00:26:51;;;;;;;7.68;2.40;;;;;;;;;;4965004;28;92336;-80
2023/10/28 00:29:18;;;;;;;8.40;2.63;;;;;;;;;;4962611;28;93036;-80
2023/10/28 00:31:45;;;;;;;6.63;2.33;;;;;;;;;;4966057;28;92223;-80
2023/10/28 00:34:12;;;;;;;5.50;2.33;;;;;;;;;;4967605;28;92601;-79
2023/10/28 00:36:39;;;;;;;;;;;;;;;;;;4970984;28;92776;-79
2023/10/28 00:39:06;;;;;;;8.18;2.60;;;;;;;;;;4968398;28;95278;-79
2023/10/28 00:41:33;;;;;;;6.35;2.45;;;;;;;;;;4968246;28;95169;-79
2023/10/28 00:43:59;;;;;;;7.75;2.53;;;;;;;;;;4966588;28;94116;-79
2023/10/28 00:46:26;;;;;;;8.05;2.50;;;;;;;;;;4967835;28;92693;-79
2023/10/28 00:48:53;;;;;;;6.55;2.60;;;;;;;;;;4968383;28;92842;-79
2023/10/28 00:51:20;;;;;;;6.03;2.25;;;;;;;;;;4968407;28;93114;-79
2023/10/28 00:53:46;;;;;;;8.05;2.50;;;;;;;;;;4967574;28;92470;-80
2023/10/28 00:56:13;;;;;;;6.57;2.40;;;;;;;;;;4967752;28;92735;-79
2023/10/28 00:58:40;;;;;;;7.45;2.28;;;;;;;;;;4979841;28;93130;-79
2023/10/28 01:01:10;;;;;;;7.97;2.70;;;;;;;;;;4968543;28;92957;-80
2023/10/28 01:03:36;;;;;;;7.43;2.47;;;;;;;;;;4966472;28;95931;-80
2023/10/28 01:06:03;;;;;;;5.47;2.20;;;;;;;;;;4967823;28;92522;-79
2023/10/28 01:08:30;;;;;;;7.82;2.70;;;;;;;;;;4967655;28;92781;-79
2023/10/28 01:11:01;;;;;;;5.25;2.28;;;;;;;;;;4965080;28;96160;-79
2023/10/28 01:13:28;;;;;;;6.95;2.40;;;;;;;;;;4970930;28;92592;-79
2023/10/28 01:15:54;;;;;;;7.88;2.40;;;;;;;;;;4966837;28;93159;-79
2023/10/28 01:18:21;;;;;;;7.55;2.40;;;;;;;;;;4966361;28;93075;-79
2023/10/28 01:20:48;;;;;;;6.70;2.63;;;;;;;;;;4972415;28;92311;-79
2023/10/28 01:23:14;;;;;;;7.95;2.20;;;;;;;;;;4966494;28;93336;-80
2023/10/28 01:25:41;;;;;;;5.70;2.22;;;;;;;;;;4966476;28;92605;-80
2023/10/28 01:28:08;;;;;;;7.57;2.47;;;;;;;;;;4965086;28;95861;-78
2023/10/28 01:30:34;;;;;;;6.70;2.20;;;;;;;;;;4965595;28;94411;-80
2023/10/28 01:33:02;;;;;;;6.60;2.35;;;;;;;;;;4964866;28;92559;-79
2023/10/28 01:35:29;;;;;;;6.68;2.40;;;;;;;;;;4966999;28;92939;-79
2023/10/28 01:37:55;;;;;;;6.30;2.50;;;;;;;;;;4966047;28;93782;-78
2023/10/28 01:40:22;;;;;;;6.72;2.22;;;;;;;;;;4966808;28;93042;-78
2023/10/28 01:42:48;;;;;;;6.47;2.40;;;;;;;;;;4970439;28;92935;-78
2023/10/28 01:45:15;;;;;;;7.28;2.30;;;;;;;;;;4966125;28;92124;-81
2023/10/28 01:47:42;;;;;;;9.23;2.47;;;;;;;;;;4969590;28;92761;-78
2023/10/28 01:50:13;;;;;;;7.63;2.60;;;;;;;;;;4968953;28;95827;-78
2023/10/28 01:52:41;;;;;;;7.60;2.40;;;;;;;;;;4968076;28;95073;-78
2023/10/28 01:55:07;;;;;;;7.43;2.40;;;;;;;;;;4963402;28;96940;-78
2023/10/28 01:57:34;;;;;;;7.13;2.30;;;;;;;;;;4970740;28;93086;-78
2023/10/28 02:00:06;;;;;;;6.50;2.30;;;;;;;;;;4967837;28;92609;-78
2023/10/28 02:02:35;;;;;;;8.23;2.50;;;;;;;;;;4970316;28;97076;-78
2023/10/28 02:05:02;;;;;;;7.10;2.30;;;;;;;;;;4954683;28;95538;-78
2023/10/28 02:07:28;;;;;;;6.25;2.35;;;;;;;;;;4970351;28;93353;-78
2023/10/28 02:09:55;;;;;;;7.43;2.53;;;;;;;;;;4970660;28;92390;-81
2023/10/28 02:12:22;;;;;;;7.97;2.20;;;;;;;;;;4971107;28;92602;-79
2023/10/28 02:14:48;;;;;;;5.15;1.90;;;;;;;;;;4976399;28;93971;-81
2023/10/28 02:17:15;;;;;;;5.15;1.88;;;;;;;;;;4966677;28;98278;-79
2023/10/28 02:19:41;;;;;;;6.10;2.15;;;;;;;;;;4967743;28;92500;-81
2023/10/28 02:22:10;;;;;;;7.20;2.25;;;;;;;;;;4968769;28;95724;-78
2023/10/28 02:24:41;;;;;;;7.75;2.30;;;;;;;;;;4972080;28;93339;-81
2023/10/28 02:27:08;;;;;;;5.90;1.95;;;;;;;;;;4970327;28;92744;-81
2023/10/28 02:29:37;;;;;;;6.32;2.20;;;;;;;;;;4972722;28;93023;-81
2023/10/28 02:32:08;;;;;;;6.75;2.15;;;;;;;;;;4967913;28;93034;-81
2023/10/28 02:34:36;;;;;;;8.18;2.20;;;;;;;;;;4968926;28;97063;-78
2023/10/28 02:37:05;;;;;;;6.65;2.22;;;;;;;;;;4969194;28;93112;-78
2023/10/28 02:39:32;;;;;;;4.63;1.70;;;;;;;;;;4967034;28;94132;-81
2023/10/28 02:42:00;;;;;;;6.35;2.17;;;;;;;;;;4967596;28;94849;-78
2023/10/28 02:44:29;;;;;;;7.10;2.17;;;;;;;;;;4966686;28;95646;-79
2023/10/28 02:46:55;;;;;;;6.43;1.88;;;;;;;;;;4972120;28;92584;-79
2023/10/28 02:49:22;;;;;;;6.57;2.10;;;;;;;;;;4968344;28;96422;-78
2023/10/28 02:51:49;;;;;;;7.30;2.30;;;;;;;;;;4969869;28;92723;-78
2023/10/28 02:54:15;;;;;;;7.75;2.20;;;;;;;;;;4963563;28;93945;-81
2023/10/28 02:56:44;;;;;;;7.47;2.40;;;;;;;;;;4947076;28;94180;-78
2023/10/28 02:59:11;;;;;;;7.45;2.20;;;;;;;;;;4959755;28;92344;-78
2023/10/28 03:01:39;;;;;;;6.63;2.13;;;;;;;;;;4983713;28;94775;-78
2023/10/28 03:04:06;;;;;;;8.25;2.20;;;;;;;;;;4965950;28;96022;-78
2023/10/28 03:06:32;;;;;;;8.30;2.03;;;;;;;;;;4964852;28;95497;-78
2023/10/28 03:09:00;;;;;;;5.38;1.90;;;;;;;;;;4969513;28;98839;-78
2023/10/28 03:11:26;;;;;;;6.13;2.10;;;;;;;;;;4967942;28;92603;-78
2023/10/28 03:13:54;;;;;;;7.22;2.47;;;;;;;;;;4967810;28;95569;-79
2023/10/28 03:16:21;;;;;;;;;;;;;;;;;;4971427;28;93311;-79
2023/10/28 03:18:47;;;;;;;5.18;1.67;;;;;;;;;;4971870;28;92458;-81
2023/10/28 03:21:15;;;;;;;5.97;1.88;;;;;;;;;;4969417;28;93535;-80
2023/10/28 03:23:42;;;;;;;8.30;2.10;;;;;;;;;;4967893;28;92274;-80
2023/10/28 03:26:08;;;;;;;7.47;1.95;;;;;;;;;;4969169;28;93199;-79
2023/10/28 03:28:35;;;;;;;7.55;2.13;;;;;;;;;;4966858;28;93231;-80
2023/10/28 03:31:06;;;;;;;7.38;1.92;;;;;;;;;;4967059;28;98302;-80
2023/10/28 03:33:32;;;;;;;6.15;1.92;;;;;;;;;;4967920;28;95471;-81
2023/10/28 03:35:59;;;;;;;7.32;2.28;;;;;;;;;;4968433;28;93063;-80
2023/10/28 03:38:26;;;;;;;5.00;1.80;;;;;;;;;;4967276;28;92643;-80
2023/10/28 03:40:53;;;;;;;5.25;1.90;;;;;;;;;;4967414;28;92728;-80
2023/10/28 03:43:20;;;;;;;6.30;1.90;;;;;;;;;;4967054;28;96242;-80
2023/10/28 03:45:48;;;;;;;6.95;1.90;;;;;;;;;;4967663;28;93098;-81
2023/10/28 03:48:14;;;;;;;7.55;2.10;;;;;;;;;;4964841;28;93240;-81
2023/10/28 03:50:41;;;;;;;6.63;1.95;;;;;;;;;;4966921;28;93247;-80
2023/10/28 03:53:07;;;;;;;7.30;2.08;;;;;;;;;;4969077;28;92873;-80
2023/10/28 03:55:34;;;;;;;6.55;2.00;;;;;;;;;;4959402;28;95648;-80
2023/10/28 03:58:02;;;;;;;7.60;2.20;;;;;;;;;;4965851;28;92755;-80
2023/10/28 04:00:28;;;;;;;5.70;2.00;;;;;;;;;;4965863;28;93680;-81
2023/10/28 04:02:55;;;;;;;7.78;2.00;;;;;;;;;;4966591;28;93500;-81
2023/10/28 04:05:22;;;;;;;6.63;1.83;;;;;;;;;;4965308;28;92611;-80
2023/10/28 04:07:48;;;;;;;6.35;1.73;;;;;;;;;;4965851;28;94057;-81
2023/10/28 04:10:15;;;;;;;7.68;2.33;;;;;;;;;;4965504;28;93704;-81
2023/10/28 04:12:41;;;;;;;6.50;1.80;;;;;;;;;;4966725;28;92311;-80
2023/10/28 04:15:09;;;;;;;6.60;1.80;;;;;;;;;;4974801;28;93063;-79
2023/10/28 04:17:36;;;;;;;7.38;2.03;;;;;;;;;;4967329;28;92662;-79
2023/10/28 04:20:03;;;;;;;5.80;1.90;;;;;;;;;;4965674;28;95175;-79
2023/10/28 04:22:29;;;;;;;5.80;1.85;;;;;;;;;;4965057;28;95334;-79
2023/10/28 04:24:56;;;;;;;6.00;1.75;;;;;;;;;;4966603;28;92516;-79
2023/10/28 04:27:22;;;;;;;5.43;1.67;;;;;;;;;;4967116;28;93405;-79
2023/10/28 04:29:50;;;;;;;5.57;1.80;;;;;;;;;;4964625;28;93258;-80
2023/10/28 04:32:20;;;;;;;;;;;;;;;;;;4965593;28;93134;-79
2023/10/28 04:34:46;;;;;;;6.15;1.98;;;;;;;;;;4970605;28;110396;-79
2023/10/28 04:37:24;;;;;;;4.30;1.55;;;;;;;;;;4967282;28;91775;-79
2023/10/28 04:39:51;;;;;;;5.43;1.80;;;;;;;;;;4966536;28;92532;-79
2023/10/28 04:42:18;;;;;;;5.65;1.50;;;;;;;;;;4966293;28;93005;-80
2023/10/28 04:44:45;;;;;;;;;;;;;;;;;;4962552;28;95034;-79
2023/10/28 04:47:12;;;;;;;5.30;1.60;;;;;;;;;;4967404;28;100651;-80
2023/10/28 04:49:39;;;;;;;5.43;1.73;;;;;;;;;;4952586;28;93097;-79
2023/10/28 04:52:08;;;;;;;6.13;1.73;;;;;;;;;;4965945;28;92840;-79
2023/10/28 04:54:35;;;;;;;5.28;1.70;;;;;;;;;;4963119;28;97306;-81
2023/10/28 04:57:03;;;;;;;6.68;1.65;;;;;;;;;;4969153;28;93325;-78
2023/10/28 04:59:30;;;;;;;5.57;1.58;;;;;;;;;;4961378;28;92916;-79
2023/10/28 05:01:56;;;;;;;5.78;1.60;;;;;;;;;;4966430;28;92411;-79
2023/10/28 05:04:27;;;;;;;4.68;1.58;;;;;;;;;;4965027;28;92951;-79
2023/10/28 05:06:54;;;;;;;5.50;1.67;;;;;;;;;;4966451;28;92836;-79
2023/10/28 05:09:21;;;;;;;5.55;1.40;;;;;;;;;;4965177;28;96060;-81
2023/10/28 05:11:50;;;;;;;4.45;1.50;;;;;;;;;;4965629;28;92505;-79
2023/10/28 05:14:17;;;;;;;4.38;1.30;;;;;;;;;;4968629;28;92650;-79
2023/10/28 05:16:44;;;;;;;6.65;1.48;;;;;;;;;;4969850;28;93305;-79
2023/10/28 05:19:11;;;;;;;5.40;1.40;;;;;;;;;;4969857;28;92539;-79
2023/10/28 05:21:38;;;;;;;4.15;1.20;;;;;;;;;;4967880;28;93178;-79
2023/10/28 05:24:05;;;;;;;3.05;1.30;;;;;;;;;;4969983;28;92509;-78
2023/10/28 05:26:31;;;;;;;5.97;1.65;;;;;;;;;;4969622;28;93776;-78
2023/10/28 05:28:58;;;;;;;4.45;1.23;;;;;;;;;;4968882;28;92961;-79
2023/10/28 05:31:25;;;;;;;4.80;1.50;;;;;;;;;;4969536;28;92564;-79
2023/10/28 05:33:52;;;;;;;3.88;1.48;;;;;;;;;;4967352;28;98701;-78
2023/10/28 05:36:18;;;;;;;6.00;1.60;;;;;;;;;;4968747;28;92585;-78
2023/10/28 05:38:45;;;;;;;5.00;1.40;;;;;;;;;;4970027;28;92718;-80
2023/10/28 05:41:12;;;;;;;5.15;1.40;;;;;;;;;;4972964;28;92827;-81
2023/10/28 05:43:38;;;;;;;5.65;1.63;;;;;;;;;;4970099;28;92458;-81
2023/10/28 05:46:05;;;;;;;5.75;1.45;;;;;;;;;;4969761;28;92574;-77
2023/10/28 05:48:32;;;;;;;4.03;1.40;;;;;;;;;;4968195;28;93026;-78
2023/10/28 05:50:59;;;;;;;4.80;1.50;;;;;;;;;;4969727;28;91855;-78
2023/10/28 05:53:26;;;;;;;4.50;1.50;;;;;;;;;;4970463;28;93005;-82
2023/10/28 05:55:53;;;;;;;4.50;1.23;;;;;;;;;;4969973;28;93068;-78
2023/10/28 05:58:20;;;;;;;4.00;1.30;;;;;;;;;;4967428;28;95166;-78
2023/10/28 06:00:46;;;;;;;2.90;1.20;;;;;;;;;;4968418;28;95169;-78
2023/10/28 06:03:13;;;;;;;3.70;1.20;;;;;;;;;;4970815;28;94724;-79
2023/10/28 06:05:39;;;;;;;3.42;1.30;;;;;;;;;;4969589;28;92770;-81
2023/10/28 06:08:08;;;;;;;4.03;1.30;;;;;;;;;;4969466;28;94447;-78
2023/10/28 06:10:34;;;;;;;2.83;1.10;;;;;;;;;;4969212;28;92496;-78
2023/10/28 06:13:01;;;;;;;4.72;1.20;;;;;;;;;;4968270;28;92985;-82
2023/10/28 06:15:28;;;;;;;3.58;1.30;;;;;;;;;;4974656;28;94779;-79
2023/10/28 06:17:54;;;;;;;6.18;1.35;;;;;;;;;;4965592;28;93697;-81
2023/10/28 06:20:21;;;;;;;7.10;1.25;;;;;;;;;;4956973;28;92848;-80
2023/10/28 06:22:48;;;;;;;5.18;1.33;;;;;;;;;;4965522;28;95401;-81
2023/10/28 06:25:14;;;;;;;4.18;1.23;;;;;;;;;;4971247;28;93023;-80
2023/10/28 06:27:41;;;;;;;4.70;1.30;;;;;;;;;;4968587;28;94148;-78
2023/10/28 06:30:11;;;;;;;5.40;1.40;;;;;;;;;;4967151;28;93133;-78
2023/10/28 06:32:38;;;;;;;4.93;1.30;;;;;;;;;;4968079;28;92851;-78
2023/10/28 06:35:05;;;;;;;2.75;1.20;;;;;;;;;;4965730;28;95835;-78
2023/10/28 06:37:32;;;;;;;4.65;1.20;;;;;;;;;;4967836;28;93074;-78
2023/10/28 06:39:59;;;;;;;3.78;1.23;;;;;;;;;;4971347;28;96259;-79
2023/10/28 06:42:25;;;;;;;5.03;1.30;;;;;;;;;;4971277;28;93012;-80
2023/10/28 06:44:52;;;;;;;3.33;1.15;;;;;;;;;;4977182;28;92488;-80
2023/10/28 06:47:20;;;;;;;1.98;1.10;;;;;;;;;;4970458;28;94868;-80
2023/10/28 06:49:46;;;;;;;4.07;1.30;;;;;;;;;;4973494;28;92567;-79
2023/10/28 06:52:13;;;;;;;3.25;1.08;;;;;;;;;;4976179;28;93950;-79
2023/10/28 06:54:40;;;;;;;3.17;1.10;;;;;;;;;;4972052;28;92862;-78
2023/10/28 06:57:06;;;;;;;2.13;1.10;;;;;;;;;;4978187;28;92782;-78
2023/10/28 06:59:34;;;;;;;3.50;1.20;;;;;;;;;;4983417;28;92391;-78
2023/10/28 07:02:01;;;;;;;3.03;1.20;;;;;;;;;;4975086;28;93294;-80
2023/10/28 07:04:28;;;;;;;2.45;0.93;;;;;;;;;;4970354;28;91796;-79
2023/10/28 07:06:54;;;;;;;3.95;1.10;;;;;;;;;;4973243;28;92963;-78
2023/10/28 07:09:21;;;;;;;4.43;1.10;;;;;;;;;;4971983;28;92504;-78
2023/10/28 07:11:47;;;;;;;3.22;1.10;;;;;;;;;;4967662;28;95274;-78
2023/10/28 07:14:14;;;;;;;2.53;1.08;;;;;;;;;;4965739;28;96076;-78
2023/10/28 07:16:41;;;;;;;2.38;0.95;;;;;;;;;;4969381;28;92990;-78
2023/10/28 07:19:09;;;;;;;4.43;1.10;;;;;;;;;;4968689;28;92816;-78
2023/10/28 07:21:36;;;;;;;2.33;1.10;;;;;;;;;;4968782;28;93584;-78
2023/10/28 07:24:04;;;;;;;3.63;1.17;;;;;;;;;;4968607;28;92953;-80
2023/10/28 07:26:31;;;;;;;3.13;1.25;;;;;;;;;;4966220;28;93210;-79
2023/10/28 07:28:57;;;;;;;3.63;1.13;;;;;;;;;;4975951;28;92507;-79
2023/10/28 07:31:24;;;;;;;3.15;1.13;;;;;;;;;;4968799;28;92597;-79
2023/10/28 07:33:50;;;;;;;10.65;1.27;;;;;;;;;;4967096;28;93243;-79
2023/10/28 07:36:17;;;;;;;3.65;1.10;;;;;;;;;;4955244;28;94929;-80
2023/10/28 07:38:43;;;;;;;4.70;1.38;;;;;;;;;;4966817;28;98001;-79
2023/10/28 07:41:10;;;;;;;3.50;1.30;;;;;;;;;;4968867;28;93338;-79
2023/10/28 07:43:37;;;;;;;3.40;1.15;;;;;;;;;;4967125;28;99812;-80
2023/10/28 07:46:04;;;;;;;6.43;1.23;;;;;;;;;;4966391;28;93234;-79
2023/10/28 07:48:31;;;;;;;4.55;1.30;;;;;;;;;;4976143;28;92420;-78
2023/10/28 07:50:57;;;;;;;2.97;1.00;;;;;;;;;;4972094;28;92462;-79
2023/10/28 07:53:24;;;;;;;3.97;1.20;;;;;;;;;;4968784;28;92372;-79
2023/10/28 07:55:50;;;;;;;5.05;1.10;;;;;;;;;;4982062;28;92544;-78
2023/10/28 07:58:17;;;;;;;6.60;1.15;;;;;;;;;;4969984;28;93029;-77
2023/10/28 08:00:44;;;;;;;4.22;1.10;;;;;;;;;;4967425;28;95525;-78
2023/10/28 08:03:10;;;;;;;6.53;1.30;;;;;;;;;;4968294;28;92485;-77
2023/10/28 08:05:37;;;;;;;16.08;2.22;;;;;;;;;;4968998;28;92977;-77
2023/10/28 08:08:03;;;;;;;14.70;2.15;;;;;;;;;;4968036;28;93001;-78
2023/10/28 08:10:32;;;;;;;16.25;2.50;;;;;;;;;;4966925;28;92708;-78
2023/10/28 08:13:00;;;;;;;18.15;2.78;;;;;;;;;;4970765;28;92887;-77
2023/10/28 08:15:29;;;;;;;22.85;3.38;;;;;;;;;;4971267;28;92406;-78
2023/10/28 08:17:56;;;;;;;16.58;2.38;;;;;;;;;;4948547;28;94164;-77
2023/10/28 08:20:23;;;;;;;10.23;1.92;;;;;;;;;;4959583;28;93022;-77
2023/10/28 08:22:49;;;;;;;13.52;2.20;;;;;;;;;;4966555;28;92416;-78
2023/10/28 08:25:16;;;;;;;7.40;1.60;;;;;;;;;;4964556;28;95302;-78
2023/10/28 08:27:44;;;;;;;8.23;1.50;;;;;;;;;;4957714;28;92860;-78
2023/10/28 08:30:16;;;;;;;8.88;1.70;;;;;;;;;;4967289;28;92451;-78
2023/10/28 08:32:43;;;;;;;8.27;1.30;;;;;;;;;;4971936;28;93057;-78
2023/10/28 08:35:10;;;;;;;6.75;1.48;;;;;;;;;;4968244;28;92466;-78
2023/10/28 08:37:37;;;;;;;5.68;1.40;;;;;;;;;;4968470;28;93712;-78
2023/10/28 08:40:07;;;;;;;5.57;1.30;;;;;;;;;;4958013;28;95809;-78
2023/10/28 08:42:34;;;;;;;7.18;1.38;;;;;;;;;;4966527;28;94922;-78
2023/10/28 08:45:02;;;;;;;8.48;1.20;;;;;;;;;;4955149;28;92617;-78
2023/10/28 08:47:31;;;;;;;4.82;1.10;;;;;;;;;;4967020;28;94039;-79
2023/10/28 08:49:58;;;;;;;5.80;1.20;;;;;;;;;;4964183;28;95060;-79
2023/10/28 08:52:25;;;;;;;5.25;1.50;;;;;;;;;;4966758;28;94980;-78
2023/10/28 08:54:54;;;;;;;3.83;1.20;;;;;;;;;;4970662;28;93248;-79
2023/10/28 08:57:21;;;;;;;7.53;1.20;;;;;;;;;;4965167;28;92781;-79
2023/10/28 08:59:47;;;;;;;4.78;1.40;;;;;;;;;;4965963;28;96134;-79
2023/10/28 09:02:14;;;;;;;3.88;1.17;;;;;;;;;;4971116;28;93047;-79
2023/10/28 09:04:41;;;;;;;4.38;1.05;;;;;;;;;;4968569;28;92663;-79
2023/10/28 09:07:07;;;;;;;;;;;;;;;;;;4968007;28;92250;-78
2023/10/28 09:09:37;;;;;;;6.30;1.20;;;;;;;;;;4968649;28;106139;-78
2023/10/28 09:12:07;;;;;;;3.90;1.17;;;;;;;;;;4966900;28;92640;-78
2023/10/28 09:14:33;;;;;;;2.85;1.10;;;;;;;;;;4965122;28;100372;-79
2023/10/28 09:17:02;;;;;;;2.88;1.00;;;;;;;;;;4970651;28;92557;-78
2023/10/28 09:19:29;;;;;;;5.10;1.20;;;;;;;;;;4967266;28;93245;-78
2023/10/28 09:21:55;;;;;;;3.65;1.08;;;;;;;;;;4967146;28;92689;-78
2023/10/28 09:24:22;;;;;;;6.50;1.10;;;;;;;;;;4966639;28;93516;-77
2023/10/28 09:26:52;;;;;;;4.95;1.10;;;;;;;;;;4967368;28;92492;-77
2023/10/28 09:29:28;;;;;;;5.50;1.10;;;;;;;;;;4964011;28;92664;-78
2023/10/28 09:32:02;;;;;;;3.58;1.10;;;;;;;;;;4967631;28;92583;-78
2023/10/28 09:34:29;;;;;;;4.75;1.20;;;;;;;;;;4964982;28;93188;-78
2023/10/28 09:36:56;;;;;;;3.55;1.05;;;;;;;;;;4963455;28;92765;-78
2023/10/28 09:39:24;;;;;;;6.63;1.52;;;;;;;;;;4967294;28;95172;-78
2023/10/28 09:41:52;;;;;;;4.38;1.20;;;;;;;;;;4965694;28;92635;-78
2023/10/28 09:44:19;;;;;;;4.00;1.08;;;;;;;;;;4963715;28;94211;-78
2023/10/28 09:46:47;;;;;;;5.47;1.15;;;;;;;;;;4962749;28;93336;-78
2023/10/28 09:49:17;;;;;;;4.25;1.20;;;;;;;;;;4965812;28;92744;-78
2023/10/28 09:51:45;;;;;;;7.63;1.35;;;;;;;;;;4966035;28;93711;-78
2023/10/28 09:54:19;;;;;;;4.15;1.10;;;;;;;;;;4965104;28;93048;-77
2023/10/28 09:56:47;;;;;;;6.32;1.17;;;;;;;;;;4966965;28;91885;-78
2023/10/28 09:59:18;;;;;;;5.47;1.20;;;;;;;;;;4966233;28;93047;-78
2023/10/28 10:01:48;;;;;;;3.58;1.20;;;;;;;;;;4973412;28;93613;-78
2023/10/28 10:04:25;;;;;;;3.95;1.13;;;;;;;;;;4963758;28;95134;-78
2023/10/28 10:06:51;;;;;;;4.18;1.10;;;;;;;;;;4964476;28;93505;-78
2023/10/28 10:09:18;;;;;;;4.68;1.30;;;;;;;;;;4966600;28;92835;-78
2023/10/28 10:11:45;;;;;;;5.68;1.30;;;;;;;;;;4969296;28;92953;-78
2023/10/28 10:14:12;;;;;;;3.97;1.20;;;;;;;;;;4968571;28;99421;-78
2023/10/28 10:16:47;;;;;;;4.43;1.08;;;;;;;;;;4966282;28;92455;-78
2023/10/28 10:19:22;;;;;;;5.10;1.20;;;;;;;;;;4969759;28;94753;-78
2023/10/28 10:21:51;;;;;;;4.28;0.93;;;;;;;;;;4968693;28;93434;-78
2023/10/28 10:24:20;;;;;;;4.88;1.00;;;;;;;;;;4968487;28;92787;-78
2023/10/28 10:26:54;;;;;;;3.78;1.13;;;;;;;;;;4964371;28;93398;-77
2023/10/28 10:29:21;;;;;;;3.97;1.30;;;;;;;;;;4961698;28;95476;-77
2023/10/28 10:31:55;;;;;;;4.15;1.23;;;;;;;;;;4971128;28;96080;-78
2023/10/28 10:34:33;;;;;;;3.13;1.10;;;;;;;;;;4970017;28;93670;-78
2023/10/28 10:37:00;;;;;;;3.00;0.98;;;;;;;;;;4968552;28;92777;-77
2023/10/28 10:39:27;;;;;;;3.88;1.20;;;;;;;;;;4968049;28;93194;-78
2023/10/28 10:41:54;;;;;;;5.13;1.08;;;;;;;;;;4969509;28;92706;-78
2023/10/28 10:44:34;;;;;;;3.85;1.02;;;;;;;;;;4971241;28;94458;-79
2023/10/28 10:47:01;;;;;;;3.55;1.20;;;;;;;;;;4962867;28;93019;-79
2023/10/28 10:49:31;;;;;;;3.10;1.20;;;;;;;;;;4969252;28;93011;-78
2023/10/28 10:51:59;;;;;;;3.88;1.10;;;;;;;;;;4967226;28;94175;-78
2023/10/28 10:54:33;;;;;;;6.43;1.30;;;;;;;;;;4965728;28;95491;-78
2023/10/28 10:57:00;;;;;;;4.97;1.20;;;;;;;;;;4968065;28;92651;-78
2023/10/28 10:59:31;;;;;;;3.47;1.15;;;;;;;;;;4957912;28;93504;-79
2023/10/28 11:02:00;;;;;;;3.28;1.00;;;;;;;;;;4962561;28;93416;-79
2023/10/28 11:04:31;;;;;;;3.45;1.05;;;;;;;;;;4966867;28;92397;-79
2023/10/28 11:06:58;;;;;;;3.92;1.30;;;;;;;;;;4970980;28;93495;-79
2023/10/28 11:09:28;;;;;;;4.30;1.38;;;;;;;;;;4969628;28;93025;-78
2023/10/28 11:11:55;;;;;;;6.93;1.55;;;;;;;;;;4969583;28;93133;-78
2023/10/28 11:14:23;;;;;;;6.72;1.50;;;;;;;;;;4968421;28;93253;-78
2023/10/28 11:16:50;;;;;;;9.32;1.90;;;;;;;;;;4967679;28;92573;-78
2023/10/28 11:19:17;;;;;;;;;;;;;;;;;;4967719;28;95123;-78
2023/10/28 11:21:44;;;;;;;11.45;1.90;;;;;;;;;;4974283;28;93156;-78
2023/10/28 11:24:10;;;;;;;9.02;2.15;;;;;;;;;;4965118;28;92382;-77
2023/10/28 11:26:37;;;;;;;8.50;2.08;;;;;;;;;;4967111;28;93831;-78
2023/10/28 11:29:05;;;;;;;8.55;1.90;;;;;;;;;;4966238;28;96215;-78
2023/10/28 11:31:33;;;;;;;11.85;2.13;;;;;;;;;;4970167;28;93348;-78
2023/10/28 11:34:00;;;;;;;9.43;2.17;;;;;;;;;;4966468;28;93192;-78
2023/10/28 11:36:27;;;;;;;8.25;2.00;;;;;;;;;;4967387;28;92191;-78
2023/10/28 11:38:57;;;;;;;8.75;1.90;;;;;;;;;;4967626;28;93441;-78
2023/10/28 11:41:24;;;;;;;10.15;1.80;;;;;;;;;;4966978;28;93616;-78
2023/10/28 11:43:52;;;;;;;7.95;1.80;;;;;;;;;;4965567;28;95260;-78
2023/10/28 11:46:19;;;;;;;8.38;1.70;;;;;;;;;;4966824;28;96263;-78
2023/10/28 11:48:46;;;;;;;8.13;1.90;;;;;;;;;;4966422;28;93079;-78
2023/10/28 11:51:13;;;;;;;7.97;1.95;;;;;;;;;;4971561;28;92441;-78
2023/10/28 11:53:43;;;;;;;7.78;2.08;;;;;;;;;;4968446;28;94104;-78
2023/10/28 11:56:10;;;;;;;5.78;1.50;;;;;;;;;;4967539;28;92627;-78
2023/10/28 11:58:37;;;;;;;9.65;1.92;;;;;;;;;;4955452;28;93105;-78
2023/10/28 12:01:03;;;;;;;8.75;1.80;;;;;;;;;;4970571;28;93905;-78
2023/10/28 12:03:30;;;;;;;8.57;1.80;;;;;;;;;;4969269;28;93078;-78
2023/10/28 12:05:57;;;;;;;9.80;1.90;;;;;;;;;;4967964;28;93688;-77
2023/10/28 12:08:23;;;;;;;10.27;1.80;;;;;;;;;;4966318;28;95865;-79
2023/10/28 12:10:50;;;;;;;7.18;1.70;;;;;;;;;;4967764;28;92905;-80
2023/10/28 12:13:18;;;;;;;7.22;1.80;;;;;;;;;;4971050;28;92785;-78
2023/10/28 12:15:44;;;;;;;6.40;1.63;;;;;;;;;;4967987;28;92634;-78
2023/10/28 12:18:11;;;;;;;7.03;1.60;;;;;;;;;;4967219;28;92768;-77
2023/10/28 12:20:38;;;;;;;8.10;1.70;;;;;;;;;;4966935;28;93644;-78
2023/10/28 12:23:04;;;;;;;8.23;1.63;;;;;;;;;;4965555;28;92947;-77
2023/10/28 12:25:31;;;;;;;6.82;1.70;;;;;;;;;;4968350;28;92957;-79
2023/10/28 12:27:58;;;;;;;9.02;1.98;;;;;;;;;;4968026;28;93667;-79
2023/10/28 12:30:24;;;;;;;7.07;1.77;;;;;;;;;;4966748;28;92534;-80
2023/10/28 12:32:51;;;;;;;7.18;1.70;;;;;;;;;;4966422;28;95270;-80
2023/10/28 12:35:18;;;;;;;7.30;1.63;;;;;;;;;;4970656;28;93294;-80
2023/10/28 12:37:45;;;;;;;;;;;;;;;;;;4968383;28;92909;-80
2023/10/28 12:40:12;;;;;;;5.07;1.38;;;;;;;;;;4968328;28;103147;-79
2023/10/28 12:42:39;;;;;;;8.48;1.58;;;;;;;;;;4960628;28;93108;-80
2023/10/28 12:45:06;;;;;;;7.07;1.52;;;;;;;;;;4962265;28;92810;-80
2023/10/28 12:47:33;;;;;;;;;;;;;;;;;;4967968;28;93635;-80
2023/10/28 12:50:03;;;;;;;8.73;1.80;;;;;;;;;;4969496;28;92093;-80
2023/10/28 12:52:30;;;;;;;6.88;1.52;;;;;;;;;;4967042;28;92904;-80
2023/10/28 12:55:03;;;;;;;6.72;1.55;;;;;;;;;;4969634;28;92995;-80
2023/10/28 12:57:30;;;;;;;7.22;1.70;;;;;;;;;;4966275;28;94862;-80
2023/10/28 12:59:57;;;;;;;7.95;1.73;;;;;;;;;;4966406;28;93070;-79
2023/10/28 13:02:25;;;;;;;7.88;1.63;;;;;;;;;;4967127;28;92682;-78
2023/10/28 13:04:51;;;;;;;8.25;1.60;;;;;;;;;;4966890;28;92841;-78
2023/10/28 13:07:20;;;;;;;5.78;1.60;;;;;;;;;;4967853;28;93782;-79
2023/10/28 13:09:46;;;;;;;5.50;1.30;;;;;;;;;;4967356;28;92546;-79
2023/10/28 13:12:13;;;;;;;7.72;1.60;;;;;;;;;;4966427;28;92997;-78
2023/10/28 13:14:40;;;;;;;7.03;1.40;;;;;;;;;;4972267;28;92393;-78
2023/10/28 13:17:06;;;;;;;5.03;1.40;;;;;;;;;;4970453;28;92578;-79
2023/10/28 13:19:33;;;;;;;7.30;1.65;;;;;;;;;;4966848;28;93143;-78
2023/10/28 13:22:00;;;;;;;7.47;1.55;;;;;;;;;;4965557;28;95201;-79
2023/10/28 13:24:28;;;;;;;6.30;1.65;;;;;;;;;;4966387;28;95276;-78
2023/10/28 13:26:55;;;;;;;10.02;1.85;;;;;;;;;;4967149;28;93502;-78
2023/10/28 13:29:22;;;;;;;6.25;1.70;;;;;;;;;;4964746;28;92845;-78
2023/10/28 13:31:49;;;;;;;7.32;1.65;;;;;;;;;;4965850;28;93226;-78
2023/10/28 13:34:16;;;;;;;5.32;1.35;;;;;;;;;;4965929;28;93625;-78
2023/10/28 13:36:44;;;;;;;6.82;1.67;;;;;;;;;;4967476;28;92930;-79
2023/10/28 13:39:11;;;;;;;5.80;1.65;;;;;;;;;;4968574;28;95992;-78
2023/10/28 13:41:38;;;;;;;7.47;1.67;;;;;;;;;;4966351;28;92948;-79
2023/10/28 13:44:05;;;;;;;6.57;1.52;;;;;;;;;;4970416;28;92976;-79
2023/10/28 13:46:34;;;;;;;7.55;1.80;;;;;;;;;;4967537;28;95615;-78
2023/10/28 13:49:01;;;;;;;8.38;1.88;;;;;;;;;;4970200;28;93082;-78
2023/10/28 13:51:27;;;;;;;8.15;1.90;;;;;;;;;;4971107;28;93349;-79
2023/10/28 13:53:54;;;;;;;7.15;1.85;;;;;;;;;;4968445;28;95694;-79
2023/10/28 13:56:20;;;;;;;5.13;1.42;;;;;;;;;;4968537;28;92962;-78
2023/10/28 13:58:47;;;;;;;6.30;1.55;;;;;;;;;;4968561;28;93376;-78
2023/10/28 14:01:14;;;;;;;8.57;1.77;;;;;;;;;;4972768;28;93179;-78
2023/10/28 14:03:40;;;;;;;7.00;1.70;;;;;;;;;;4965160;28;92897;-79
2023/10/28 14:06:14;;;;;;;7.30;1.58;;;;;;;;;;4970199;28;92934;-78
2023/10/28 14:08:41;;;;;;;9.38;1.70;;;;;;;;;;4967345;28;93043;-79
2023/10/28 14:11:08;;;;;;;6.53;1.67;;;;;;;;;;4966315;28;95890;-79
2023/10/28 14:13:40;;;;;;;6.85;1.70;;;;;;;;;;4969213;28;93153;-78
2023/10/28 14:16:16;;;;;;;6.63;1.40;;;;;;;;;;4971753;28;92920;-78
2023/10/28 14:18:48;;;;;;;5.65;1.50;;;;;;;;;;4970553;28;97405;-77
2023/10/28 14:21:19;;;;;;;4.75;1.55;;;;;;;;;;4969790;28;92971;-79
2023/10/28 14:23:49;;;;;;;4.97;1.60;;;;;;;;;;4973499;28;92804;-79
2023/10/28 14:26:16;;;;;;;6.28;1.77;;;;;;;;;;4968586;28;94251;-79
2023/10/28 14:28:43;;;;;;;5.53;1.70;;;;;;;;;;4973395;28;92103;-80
2023/10/28 14:31:10;;;;;;;6.07;1.48;;;;;;;;;;4974344;28;93790;-79
2023/10/28 14:33:37;;;;;;;4.85;1.30;;;;;;;;;;4975306;28;94739;-79
2023/10/28 14:36:08;;;;;;;5.95;1.65;;;;;;;;;;4971502;28;95338;-79
2023/10/28 14:38:35;;;;;;;6.85;1.52;;;;;;;;;;4973450;28;99693;-78
2023/10/28 14:41:01;;;;;;;6.10;1.50;;;;;;;;;;4973637;28;93260;-77
2023/10/28 14:43:28;;;;;;;5.30;1.50;;;;;;;;;;4973548;28;93180;-77
2023/10/28 14:45:55;;;;;;;6.65;1.65;;;;;;;;;;4974998;28;92655;-78
2023/10/28 14:48:23;;;;;;;5.15;1.48;;;;;;;;;;4971587;28;93801;-78